sensor_id;sensor_type;location;lat;lon;timestamp;P1;durP1;ratioP1;P2;durP2;ratioP2
31906;SDS011;18455;50.858;13.662;2024-03-06T00:01:34;77.03;;;40.67;;
31906;SDS011;18455;50.858;13.662;2024-03-06T00:06:34;74.23;;;40.77;;
31906;SDS011;18455;50.858;13.662;2024-03-06T00:11:34;67.27;;;37.90;;
31906;SDS011;18455;50.858;13.662;2024-03-06T00:16:38;65.73;;;38.53;;
31906;SDS011;18455;50.858;13.662;2024-03-06T00:21:38;77.00;;;41.03;;
31906;SDS011;18455;50.858;13.662;2024-03-06T00:26:45;68.90;;;39.20;;
31906;SDS011;18455;50.858;13.662;2024-03-06T00:31:45;76.50;;;41.90;;
31906;SDS011;18455;50.858;13.662;2024-03-06T00:36:46;78.00;;;45.27;;
31906;SDS011;18455;50.858;13.662;2024-03-06T00:41:46;82.03;;;44.83;;
31906;SDS011;18455;50.858;13.662;2024-03-06T00:46:46;82.20;;;43.17;;
31906;SDS011;18455;50.858;13.662;2024-03-06T00:51:47;79.00;;;42.83;;
31906;SDS011;18455;50.858;13.662;2024-03-06T00:56:47;75.67;;;40.37;;
31906;SDS011;18455;50.858;13.662;2024-03-06T01:01:47;76.33;;;42.47;;
31906;SDS011;18455;50.858;13.662;2024-03-06T01:06:47;81.00;;;41.93;;
31906;SDS011;18455;50.858;13.662;2024-03-06T01:11:48;77.50;;;41.70;;
31906;SDS011;18455;50.858;13.662;2024-03-06T01:16:48;68.63;;;39.97;;
31906;SDS011;18455;50.858;13.662;2024-03-06T01:21:48;72.67;;;39.27;;
31906;SDS011;18455;50.858;13.662;2024-03-06T01:26:48;62.67;;;37.07;;
31906;SDS011;18455;50.858;13.662;2024-03-06T01:31:48;72.07;;;35.80;;
31906;SDS011;18455;50.858;13.662;2024-03-06T01:36:49;62.20;;;35.67;;
31906;SDS011;18455;50.858;13.662;2024-03-06T01:41:50;66.47;;;35.93;;
31906;SDS011;18455;50.858;13.662;2024-03-06T01:46:50;63.33;;;34.87;;
31906;SDS011;18455;50.858;13.662;2024-03-06T01:51:53;64.50;;;34.97;;
31906;SDS011;18455;50.858;13.662;2024-03-06T01:56:55;68.60;;;34.57;;
31906;SDS011;18455;50.858;13.662;2024-03-06T02:01:56;64.10;;;33.83;;
31906;SDS011;18455;50.858;13.662;2024-03-06T02:06:56;66.60;;;37.90;;
31906;SDS011;18455;50.858;13.662;2024-03-06T02:11:56;63.43;;;33.97;;
31906;SDS011;18455;50.858;13.662;2024-03-06T02:16:56;55.23;;;32.27;;
31906;SDS011;18455;50.858;13.662;2024-03-06T02:21:57;57.40;;;32.00;;
31906;SDS011;18455;50.858;13.662;2024-03-06T02:26:57;59.40;;;31.77;;
31906;SDS011;18455;50.858;13.662;2024-03-06T02:31:57;60.13;;;32.00;;
31906;SDS011;18455;50.858;13.662;2024-03-06T02:36:58;79.83;;;38.83;;
31906;SDS011;18455;50.858;13.662;2024-03-06T02:41:58;84.00;;;40.97;;
31906;SDS011;18455;50.858;13.662;2024-03-06T02:46:58;78.87;;;40.37;;
31906;SDS011;18455;50.858;13.662;2024-03-06T02:51:58;78.30;;;41.33;;
31906;SDS011;18455;50.858;13.662;2024-03-06T02:57:01;85.97;;;41.80;;
31906;SDS011;18455;50.858;13.662;2024-03-06T03:02:01;86.90;;;42.30;;
31906;SDS011;18455;50.858;13.662;2024-03-06T03:07:03;86.30;;;41.77;;
31906;SDS011;18455;50.858;13.662;2024-03-06T03:12:03;89.23;;;42.63;;
31906;SDS011;18455;50.858;13.662;2024-03-06T03:17:04;84.43;;;42.73;;
31906;SDS011;18455;50.858;13.662;2024-03-06T03:22:05;76.80;;;40.13;;
31906;SDS011;18455;50.858;13.662;2024-03-06T03:27:06;87.77;;;42.03;;
31906;SDS011;18455;50.858;13.662;2024-03-06T03:32:06;78.07;;;38.80;;
31906;SDS011;18455;50.858;13.662;2024-03-06T03:37:06;87.23;;;44.07;;
31906;SDS011;18455;50.858;13.662;2024-03-06T03:42:06;80.03;;;39.53;;
31906;SDS011;18455;50.858;13.662;2024-03-06T03:47:07;81.13;;;39.43;;
31906;SDS011;18455;50.858;13.662;2024-03-06T03:52:07;70.27;;;37.03;;
31906;SDS011;18455;50.858;13.662;2024-03-06T03:57:07;80.13;;;40.40;;
31906;SDS011;18455;50.858;13.662;2024-03-06T04:02:08;75.43;;;40.43;;
31906;SDS011;18455;50.858;13.662;2024-03-06T04:07:08;69.87;;;37.40;;
31906;SDS011;18455;50.858;13.662;2024-03-06T04:12:08;77.40;;;39.23;;
31906;SDS011;18455;50.858;13.662;2024-03-06T04:17:09;75.17;;;38.73;;
31906;SDS011;18455;50.858;13.662;2024-03-06T04:22:09;74.03;;;36.80;;
31906;SDS011;18455;50.858;13.662;2024-03-06T04:27:09;78.73;;;41.20;;
31906;SDS011;18455;50.858;13.662;2024-03-06T04:32:10;69.07;;;36.77;;
31906;SDS011;18455;50.858;13.662;2024-03-06T04:37:10;62.20;;;34.93;;
31906;SDS011;18455;50.858;13.662;2024-03-06T04:42:10;68.47;;;35.30;;
31906;SDS011;18455;50.858;13.662;2024-03-06T04:47:10;69.27;;;36.53;;
31906;SDS011;18455;50.858;13.662;2024-03-06T04:52:10;71.93;;;37.80;;
31906;SDS011;18455;50.858;13.662;2024-03-06T04:57:11;68.43;;;36.37;;
31906;SDS011;18455;50.858;13.662;2024-03-06T05:02:11;70.30;;;38.30;;
31906;SDS011;18455;50.858;13.662;2024-03-06T05:07:12;74.90;;;39.37;;
31906;SDS011;18455;50.858;13.662;2024-03-06T05:12:13;70.17;;;37.60;;
31906;SDS011;18455;50.858;13.662;2024-03-06T05:17:13;68.63;;;37.87;;
31906;SDS011;18455;50.858;13.662;2024-03-06T05:22:13;64.03;;;35.60;;
31906;SDS011;18455;50.858;13.662;2024-03-06T05:27:14;68.90;;;37.40;;
31906;SDS011;18455;50.858;13.662;2024-03-06T05:32:17;77.63;;;39.00;;
31906;SDS011;18455;50.858;13.662;2024-03-06T05:37:17;76.80;;;40.60;;
31906;SDS011;18455;50.858;13.662;2024-03-06T05:42:17;71.90;;;38.73;;
31906;SDS011;18455;50.858;13.662;2024-03-06T05:47:17;75.97;;;39.53;;
31906;SDS011;18455;50.858;13.662;2024-03-06T05:52:18;65.73;;;38.47;;
31906;SDS011;18455;50.858;13.662;2024-03-06T05:57:18;73.30;;;39.77;;
31906;SDS011;18455;50.858;13.662;2024-03-06T06:02:18;67.90;;;38.30;;
31906;SDS011;18455;50.858;13.662;2024-03-06T06:07:19;68.13;;;37.77;;
31906;SDS011;18455;50.858;13.662;2024-03-06T06:12:20;73.73;;;39.77;;
31906;SDS011;18455;50.858;13.662;2024-03-06T06:17:20;74.37;;;39.10;;
31906;SDS011;18455;50.858;13.662;2024-03-06T06:22:20;67.70;;;37.37;;
31906;SDS011;18455;50.858;13.662;2024-03-06T06:27:21;69.93;;;36.53;;
31906;SDS011;18455;50.858;13.662;2024-03-06T06:32:21;72.00;;;37.90;;
31906;SDS011;18455;50.858;13.662;2024-03-06T06:37:22;79.43;;;38.83;;
31906;SDS011;18455;50.858;13.662;2024-03-06T06:42:22;68.70;;;38.37;;
31906;SDS011;18455;50.858;13.662;2024-03-06T06:47:22;64.40;;;37.13;;
31906;SDS011;18455;50.858;13.662;2024-03-06T06:52:25;75.20;;;40.90;;
31906;SDS011;18455;50.858;13.662;2024-03-06T06:57:27;67.43;;;38.20;;
31906;SDS011;18455;50.858;13.662;2024-03-06T07:02:27;67.80;;;36.87;;
31906;SDS011;18455;50.858;13.662;2024-03-06T07:07:28;71.87;;;37.53;;
31906;SDS011;18455;50.858;13.662;2024-03-06T07:12:28;76.13;;;37.20;;
31906;SDS011;18455;50.858;13.662;2024-03-06T07:23:08;62.30;;;37.60;;
31906;SDS011;18455;50.858;13.662;2024-03-06T07:28:09;64.73;;;36.67;;
31906;SDS011;18455;50.858;13.662;2024-03-06T07:33:09;61.10;;;36.60;;
31906;SDS011;18455;50.858;13.662;2024-03-06T07:38:09;74.83;;;38.00;;
31906;SDS011;18455;50.858;13.662;2024-03-06T07:43:10;71.53;;;38.70;;
31906;SDS011;18455;50.858;13.662;2024-03-06T07:48:11;62.67;;;35.90;;
31906;SDS011;18455;50.858;13.662;2024-03-06T07:53:11;58.97;;;34.17;;
31906;SDS011;18455;50.858;13.662;2024-03-06T07:58:11;52.97;;;32.00;;
31906;SDS011;18455;50.858;13.662;2024-03-06T08:03:11;52.97;;;31.67;;
31906;SDS011;18455;50.858;13.662;2024-03-06T08:08:13;61.27;;;34.47;;
31906;SDS011;18455;50.858;13.662;2024-03-06T08:13:14;63.40;;;34.97;;
31906;SDS011;18455;50.858;13.662;2024-03-06T08:18:14;63.13;;;35.03;;
31906;SDS011;18455;50.858;13.662;2024-03-06T08:23:15;61.23;;;34.93;;
31906;SDS011;18455;50.858;13.662;2024-03-06T08:28:15;64.63;;;33.95;;
31906;SDS011;18455;50.858;13.662;2024-03-06T08:33:15;55.13;;;33.17;;
31906;SDS011;18455;50.858;13.662;2024-03-06T08:38:16;53.85;;;31.38;;
31906;SDS011;18455;50.858;13.662;2024-03-06T08:43:17;58.42;;;32.88;;
31906;SDS011;18455;50.858;13.662;2024-03-06T08:48:22;55.17;;;30.52;;
31906;SDS011;18455;50.858;13.662;2024-03-06T08:53:22;48.58;;;29.77;;
31906;SDS011;18455;50.858;13.662;2024-03-06T08:58:22;49.93;;;30.50;;
31906;SDS011;18455;50.858;13.662;2024-03-06T09:03:23;58.15;;;31.65;;
31906;SDS011;18455;50.858;13.662;2024-03-06T09:08:24;49.83;;;30.27;;
31906;SDS011;18455;50.858;13.662;2024-03-06T09:13:25;48.15;;;29.83;;
31906;SDS011;18455;50.858;13.662;2024-03-06T09:18:25;50.80;;;29.67;;
31906;SDS011;18455;50.858;13.662;2024-03-06T09:23:26;48.03;;;29.15;;
31906;SDS011;18455;50.858;13.662;2024-03-06T09:28:26;48.83;;;28.23;;
31906;SDS011;18455;50.858;13.662;2024-03-06T09:33:26;48.40;;;29.73;;
31906;SDS011;18455;50.858;13.662;2024-03-06T09:38:26;53.45;;;30.45;;
31906;SDS011;18455;50.858;13.662;2024-03-06T09:43:27;53.15;;;30.02;;
31906;SDS011;18455;50.858;13.662;2024-03-06T09:48:27;47.33;;;29.13;;
31906;SDS011;18455;50.858;13.662;2024-03-06T09:53:28;45.67;;;29.00;;
31906;SDS011;18455;50.858;13.662;2024-03-06T09:58:28;40.63;;;25.95;;
31906;SDS011;18455;50.858;13.662;2024-03-06T10:03:29;44.65;;;25.30;;
31906;SDS011;18455;50.858;13.662;2024-03-06T10:08:29;37.88;;;22.13;;
31906;SDS011;18455;50.858;13.662;2024-03-06T10:13:29;38.88;;;23.70;;
31906;SDS011;18455;50.858;13.662;2024-03-06T10:18:30;37.13;;;22.65;;
31906;SDS011;18455;50.858;13.662;2024-03-06T10:23:31;39.63;;;24.92;;
31906;SDS011;18455;50.858;13.662;2024-03-06T10:28:31;41.20;;;23.88;;
31906;SDS011;18455;50.858;13.662;2024-03-06T10:33:32;33.67;;;22.40;;
31906;SDS011;18455;50.858;13.662;2024-03-06T10:38:34;35.45;;;21.38;;
31906;SDS011;18455;50.858;13.662;2024-03-06T10:43:35;31.55;;;20.42;;
31906;SDS011;18455;50.858;13.662;2024-03-06T10:48:37;35.25;;;23.55;;
31906;SDS011;18455;50.858;13.662;2024-03-06T10:53:37;38.75;;;24.10;;
31906;SDS011;18455;50.858;13.662;2024-03-06T10:58:38;40.05;;;24.38;;
31906;SDS011;18455;50.858;13.662;2024-03-06T11:03:38;35.47;;;22.75;;
31906;SDS011;18455;50.858;13.662;2024-03-06T11:08:39;36.58;;;22.63;;
31906;SDS011;18455;50.858;13.662;2024-03-06T11:13:39;34.72;;;22.02;;
31906;SDS011;18455;50.858;13.662;2024-03-06T11:24:43;29.35;;;19.73;;
31906;SDS011;18455;50.858;13.662;2024-03-06T11:35:02;31.38;;;19.85;;
31906;SDS011;18455;50.858;13.662;2024-03-06T11:40:06;31.95;;;21.73;;
31906;SDS011;18455;50.858;13.662;2024-03-06T11:45:12;26.88;;;19.45;;
31906;SDS011;18455;50.858;13.662;2024-03-06T11:50:13;32.63;;;21.02;;
31906;SDS011;18455;50.858;13.662;2024-03-06T11:55:14;31.65;;;21.77;;
31906;SDS011;18455;50.858;13.662;2024-03-06T12:00:15;36.35;;;21.88;;
31906;SDS011;18455;50.858;13.662;2024-03-06T12:05:15;34.88;;;22.58;;
31906;SDS011;18455;50.858;13.662;2024-03-06T12:10:16;35.55;;;22.20;;
31906;SDS011;18455;50.858;13.662;2024-03-06T12:15:17;38.97;;;24.67;;
31906;SDS011;18455;50.858;13.662;2024-03-06T12:20:19;41.97;;;27.40;;
31906;SDS011;18455;50.858;13.662;2024-03-06T12:25:19;49.42;;;30.20;;
31906;SDS011;18455;50.858;13.662;2024-03-06T12:30:23;48.30;;;30.47;;
31906;SDS011;18455;50.858;13.662;2024-03-06T12:35:23;40.80;;;27.43;;
31906;SDS011;18455;50.858;13.662;2024-03-06T12:40:24;47.43;;;29.17;;
31906;SDS011;18455;50.858;13.662;2024-03-06T12:45:24;46.77;;;30.17;;
31906;SDS011;18455;50.858;13.662;2024-03-06T12:50:24;42.43;;;27.73;;
31906;SDS011;18455;50.858;13.662;2024-03-06T12:55:24;36.35;;;24.98;;
31906;SDS011;18455;50.858;13.662;2024-03-06T13:00:26;47.50;;;27.35;;
31906;SDS011;18455;50.858;13.662;2024-03-06T13:05:26;35.22;;;24.08;;
31906;SDS011;18455;50.858;13.662;2024-03-06T13:10:26;37.92;;;25.83;;
31906;SDS011;18455;50.858;13.662;2024-03-06T13:15:26;46.80;;;26.52;;
31906;SDS011;18455;50.858;13.662;2024-03-06T13:20:26;39.22;;;26.45;;
31906;SDS011;18455;50.858;13.662;2024-03-06T13:25:27;44.83;;;28.40;;
31906;SDS011;18455;50.858;13.662;2024-03-06T13:30:27;48.33;;;30.00;;
31906;SDS011;18455;50.858;13.662;2024-03-06T13:35:27;49.70;;;30.07;;
31906;SDS011;18455;50.858;13.662;2024-03-06T13:40:28;49.97;;;29.33;;
31906;SDS011;18455;50.858;13.662;2024-03-06T13:45:28;49.13;;;30.33;;
31906;SDS011;18455;50.858;13.662;2024-03-06T13:50:29;101.50;;;58.67;;
31906;SDS011;18455;50.858;13.662;2024-03-06T13:55:29;48.93;;;27.93;;
31906;SDS011;18455;50.858;13.662;2024-03-06T14:00:33;69.60;;;38.10;;
31906;SDS011;18455;50.858;13.662;2024-03-06T14:05:35;60.37;;;33.73;;
31906;SDS011;18455;50.858;13.662;2024-03-06T14:10:35;46.40;;;29.90;;
31906;SDS011;18455;50.858;13.662;2024-03-06T14:15:37;51.37;;;31.07;;
31906;SDS011;18455;50.858;13.662;2024-03-06T14:20:37;36.70;;;22.27;;
31906;SDS011;18455;50.858;13.662;2024-03-06T14:25:39;47.08;;;27.98;;
31906;SDS011;18455;50.858;13.662;2024-03-06T14:30:39;39.40;;;23.90;;
31906;SDS011;18455;50.858;13.662;2024-03-06T14:35:39;38.87;;;25.73;;
31906;SDS011;18455;50.858;13.662;2024-03-06T14:40:39;40.27;;;24.63;;
31906;SDS011;18455;50.858;13.662;2024-03-06T14:45:39;37.67;;;22.73;;
31906;SDS011;18455;50.858;13.662;2024-03-06T14:50:42;34.03;;;21.17;;
31906;SDS011;18455;50.858;13.662;2024-03-06T14:55:42;32.67;;;20.23;;
31906;SDS011;18455;50.858;13.662;2024-03-06T15:00:43;37.10;;;20.90;;
31906;SDS011;18455;50.858;13.662;2024-03-06T15:05:43;31.93;;;19.97;;
31906;SDS011;18455;50.858;13.662;2024-03-06T15:10:44;38.63;;;20.67;;
31906;SDS011;18455;50.858;13.662;2024-03-06T15:15:44;32.87;;;19.40;;
31906;SDS011;18455;50.858;13.662;2024-03-06T15:20:44;32.10;;;18.53;;
31906;SDS011;18455;50.858;13.662;2024-03-06T15:25:45;32.47;;;19.60;;
31906;SDS011;18455;50.858;13.662;2024-03-06T15:30:45;32.83;;;19.77;;
31906;SDS011;18455;50.858;13.662;2024-03-06T15:35:45;36.30;;;19.97;;
31906;SDS011;18455;50.858;13.662;2024-03-06T15:40:45;32.03;;;19.63;;
31906;SDS011;18455;50.858;13.662;2024-03-06T15:45:47;31.40;;;19.87;;
31906;SDS011;18455;50.858;13.662;2024-03-06T15:50:48;33.27;;;20.07;;
31906;SDS011;18455;50.858;13.662;2024-03-06T15:55:48;33.13;;;19.93;;
31906;SDS011;18455;50.858;13.662;2024-03-06T16:00:48;42.10;;;22.43;;
31906;SDS011;18455;50.858;13.662;2024-03-06T16:05:49;33.57;;;19.40;;
31906;SDS011;18455;50.858;13.662;2024-03-06T16:10:51;33.93;;;20.10;;
31906;SDS011;18455;50.858;13.662;2024-03-06T16:15:51;30.50;;;19.53;;
31906;SDS011;18455;50.858;13.662;2024-03-06T16:20:51;35.10;;;21.30;;
31906;SDS011;18455;50.858;13.662;2024-03-06T16:25:52;32.20;;;19.43;;
31906;SDS011;18455;50.858;13.662;2024-03-06T16:30:52;33.40;;;19.37;;
31906;SDS011;18455;50.858;13.662;2024-03-06T16:35:54;32.53;;;18.13;;
31906;SDS011;18455;50.858;13.662;2024-03-06T16:40:54;27.13;;;17.73;;
31906;SDS011;18455;50.858;13.662;2024-03-06T16:45:54;33.47;;;18.30;;
31906;SDS011;18455;50.858;13.662;2024-03-06T16:50:54;25.00;;;15.60;;
31906;SDS011;18455;50.858;13.662;2024-03-06T17:01:55;24.37;;;14.00;;
31906;SDS011;18455;50.858;13.662;2024-03-06T17:06:56;57.27;;;34.27;;
31906;SDS011;18455;50.858;13.662;2024-03-06T17:11:56;36.20;;;23.23;;
31906;SDS011;18455;50.858;13.662;2024-03-06T17:16:56;77.00;;;39.53;;
31906;SDS011;18455;50.858;13.662;2024-03-06T17:21:56;86.43;;;42.77;;
31906;SDS011;18455;50.858;13.662;2024-03-06T17:26:57;246.03;;;97.70;;
31906;SDS011;18455;50.858;13.662;2024-03-06T17:31:58;134.10;;;63.00;;
31906;SDS011;18455;50.858;13.662;2024-03-06T17:36:58;63.30;;;34.50;;
31906;SDS011;18455;50.858;13.662;2024-03-06T17:41:58;30.23;;;19.43;;
31906;SDS011;18455;50.858;13.662;2024-03-06T17:46:59;22.43;;;13.17;;
31906;SDS011;18455;50.858;13.662;2024-03-06T17:52:00;27.83;;;13.50;;
31906;SDS011;18455;50.858;13.662;2024-03-06T17:57:00;24.73;;;14.67;;
31906;SDS011;18455;50.858;13.662;2024-03-06T18:02:00;22.80;;;14.73;;
31906;SDS011;18455;50.858;13.662;2024-03-06T18:07:02;23.03;;;13.23;;
31906;SDS011;18455;50.858;13.662;2024-03-06T18:12:02;25.77;;;16.27;;
31906;SDS011;18455;50.858;13.662;2024-03-06T18:17:02;29.10;;;16.57;;
31906;SDS011;18455;50.858;13.662;2024-03-06T18:22:04;24.90;;;13.37;;
31906;SDS011;18455;50.858;13.662;2024-03-06T18:27:04;18.63;;;12.73;;
31906;SDS011;18455;50.858;13.662;2024-03-06T18:32:05;19.37;;;13.03;;
31906;SDS011;18455;50.858;13.662;2024-03-06T18:37:05;23.23;;;13.60;;
31906;SDS011;18455;50.858;13.662;2024-03-06T18:42:05;22.07;;;12.67;;
31906;SDS011;18455;50.858;13.662;2024-03-06T18:47:06;21.43;;;13.53;;
31906;SDS011;18455;50.858;13.662;2024-03-06T18:52:06;26.20;;;15.40;;
31906;SDS011;18455;50.858;13.662;2024-03-06T18:57:06;23.20;;;15.10;;
31906;SDS011;18455;50.858;13.662;2024-03-06T19:02:07;23.60;;;15.03;;
31906;SDS011;18455;50.858;13.662;2024-03-06T19:07:07;23.50;;;14.23;;
31906;SDS011;18455;50.858;13.662;2024-03-06T19:12:07;21.80;;;15.07;;
31906;SDS011;18455;50.858;13.662;2024-03-06T19:17:07;21.90;;;14.27;;
31906;SDS011;18455;50.858;13.662;2024-03-06T19:22:08;24.00;;;15.57;;
31906;SDS011;18455;50.858;13.662;2024-03-06T19:27:11;24.60;;;14.57;;
31906;SDS011;18455;50.858;13.662;2024-03-06T19:37:41;25.00;;;15.60;;
31906;SDS011;18455;50.858;13.662;2024-03-06T19:42:41;26.07;;;16.47;;
31906;SDS011;18455;50.858;13.662;2024-03-06T19:47:45;23.50;;;15.17;;
31906;SDS011;18455;50.858;13.662;2024-03-06T19:52:45;29.90;;;17.57;;
31906;SDS011;18455;50.858;13.662;2024-03-06T19:57:50;30.03;;;16.27;;
31906;SDS011;18455;50.858;13.662;2024-03-06T20:02:52;30.87;;;16.30;;
31906;SDS011;18455;50.858;13.662;2024-03-06T20:07:53;26.63;;;16.03;;
31906;SDS011;18455;50.858;13.662;2024-03-06T20:12:53;27.53;;;16.73;;
31906;SDS011;18455;50.858;13.662;2024-03-06T20:17:54;27.50;;;17.07;;
31906;SDS011;18455;50.858;13.662;2024-03-06T20:22:57;29.27;;;17.37;;
31906;SDS011;18455;50.858;13.662;2024-03-06T20:28:08;31.53;;;16.70;;
31906;SDS011;18455;50.858;13.662;2024-03-06T20:33:08;28.03;;;17.43;;
31906;SDS011;18455;50.858;13.662;2024-03-06T20:38:10;26.83;;;16.93;;
31906;SDS011;18455;50.858;13.662;2024-03-06T20:43:11;25.03;;;16.00;;
31906;SDS011;18455;50.858;13.662;2024-03-06T20:48:12;27.80;;;17.10;;
31906;SDS011;18455;50.858;13.662;2024-03-06T20:53:13;28.13;;;17.07;;
31906;SDS011;18455;50.858;13.662;2024-03-06T21:03:37;28.53;;;16.33;;
31906;SDS011;18455;50.858;13.662;2024-03-06T21:08:38;28.80;;;17.77;;
31906;SDS011;18455;50.858;13.662;2024-03-06T21:13:38;27.27;;;16.67;;
31906;SDS011;18455;50.858;13.662;2024-03-06T21:18:39;28.57;;;16.50;;
31906;SDS011;18455;50.858;13.662;2024-03-06T21:23:42;33.07;;;18.37;;
31906;SDS011;18455;50.858;13.662;2024-03-06T21:28:43;29.77;;;17.23;;
31906;SDS011;18455;50.858;13.662;2024-03-06T21:33:45;26.30;;;16.53;;
31906;SDS011;18455;50.858;13.662;2024-03-06T21:38:46;27.50;;;16.80;;
31906;SDS011;18455;50.858;13.662;2024-03-06T21:43:46;30.90;;;18.93;;
31906;SDS011;18455;50.858;13.662;2024-03-06T21:48:46;29.77;;;18.73;;
31906;SDS011;18455;50.858;13.662;2024-03-06T21:53:47;32.90;;;18.70;;
31906;SDS011;18455;50.858;13.662;2024-03-06T21:58:47;30.33;;;19.10;;
31906;SDS011;18455;50.858;13.662;2024-03-06T22:03:48;30.27;;;19.67;;
31906;SDS011;18455;50.858;13.662;2024-03-06T22:08:48;28.77;;;18.25;;
31906;SDS011;18455;50.858;13.662;2024-03-06T22:13:48;30.07;;;18.77;;
31906;SDS011;18455;50.858;13.662;2024-03-06T22:18:48;31.40;;;18.70;;
31906;SDS011;18455;50.858;13.662;2024-03-06T22:23:49;33.53;;;18.47;;
31906;SDS011;18455;50.858;13.662;2024-03-06T22:28:49;34.30;;;19.70;;
31906;SDS011;18455;50.858;13.662;2024-03-06T22:33:51;33.83;;;19.50;;
31906;SDS011;18455;50.858;13.662;2024-03-06T22:38:51;34.37;;;19.70;;
31906;SDS011;18455;50.858;13.662;2024-03-06T22:43:53;32.87;;;19.20;;
31906;SDS011;18455;50.858;13.662;2024-03-06T22:48:53;34.20;;;19.43;;
31906;SDS011;18455;50.858;13.662;2024-03-06T22:53:53;31.93;;;19.30;;
31906;SDS011;18455;50.858;13.662;2024-03-06T22:58:53;34.57;;;20.10;;
31906;SDS011;18455;50.858;13.662;2024-03-06T23:03:53;34.37;;;18.80;;
31906;SDS011;18455;50.858;13.662;2024-03-06T23:08:54;32.13;;;18.20;;
31906;SDS011;18455;50.858;13.662;2024-03-06T23:13:54;33.07;;;20.10;;
31906;SDS011;18455;50.858;13.662;2024-03-06T23:18:55;30.90;;;19.67;;
31906;SDS011;18455;50.858;13.662;2024-03-06T23:23:56;32.20;;;19.67;;
31906;SDS011;18455;50.858;13.662;2024-03-06T23:28:56;31.30;;;19.17;;
31906;SDS011;18455;50.858;13.662;2024-03-06T23:33:57;30.57;;;18.73;;
31906;SDS011;18455;50.858;13.662;2024-03-06T23:38:57;35.10;;;19.53;;
31906;SDS011;18455;50.858;13.662;2024-03-06T23:43:57;30.07;;;19.07;;
31906;SDS011;18455;50.858;13.662;2024-03-06T23:48:57;33.10;;;19.97;;
31906;SDS011;18455;50.858;13.662;2024-03-06T23:53:57;34.67;;;19.70;;
31906;SDS011;18455;50.858;13.662;2024-03-06T23:58:58;38.80;;;22.37;;
